Time;durP1;ratioP1;P1;durP2;ratioP2;P2;SDS_P1;SDS_P2;PMS_P1;PMS_P2;Temp;Humidity;BMP_temperature;BMP_pressure;BME280_temperature;BME280_humidity;BME280_pressure;Samples;Min_cycle;Max_cycle;Signal;HPM_P1;HPM_P2
2021/11/27 00:01:42;;;;;;;11.45;2.10;;;;;;;1.94;100.00;98524.22;5054840;28;20110;-73
2021/11/27 00:04:08;;;;;;;10.45;1.83;;;;;;;1.93;100.00;98523.41;5055870;28;20029;-72
2021/11/27 00:06:34;;;;;;;11.10;1.67;;;;;;;1.91;100.00;98537.59;5055179;28;20037;-73
2021/11/27 00:09:00;;;;;;;15.00;2.90;;;;;;;1.89;100.00;98531.69;5055421;28;20056;-73
2021/11/27 00:11:27;;;;;;;11.38;1.77;;;;;;;1.88;100.00;98532.66;5054963;28;20051;-73
2021/11/27 00:13:53;;;;;;;9.90;1.80;;;;;;;1.88;100.00;98535.25;5055320;28;20025;-73
2021/11/27 00:16:19;;;;;;;10.05;2.22;;;;;;;1.87;100.00;98537.06;5055289;28;20025;-73
2021/11/27 00:18:45;;;;;;;5.45;1.63;;;;;;;1.88;100.00;98530.88;5054523;28;20061;-72
2021/11/27 00:21:13;;;;;;;7.00;1.90;;;;;;;1.89;100.00;98526.44;5055289;28;20029;-73
2021/11/27 00:23:40;;;;;;;5.93;2.03;;;;;;;1.87;100.00;98521.34;5054808;28;20029;-73
2021/11/27 00:26:08;;;;;;;3.92;1.40;;;;;;;1.85;100.00;98520.66;5054999;28;20037;-73
2021/11/27 00:28:33;;;;;;;7.70;1.50;;;;;;;1.85;100.00;98523.28;5054752;28;20029;-72
2021/11/27 00:31:02;;;;;;;6.45;1.50;;;;;;;1.82;100.00;98518.31;5054865;28;20033;-73
2021/11/27 00:33:28;;;;;;;5.88;1.35;;;;;;;1.79;100.00;98515.94;5054746;28;20122;-73
2021/11/27 00:35:53;;;;;;;6.75;1.58;;;;;;;1.76;100.00;98514.47;5054827;28;20124;-73
2021/11/27 00:38:19;;;;;;;6.30;1.50;;;;;;;1.75;100.00;98514.59;5055418;28;20041;-73
2021/11/27 00:40:45;;;;;;;4.68;1.50;;;;;;;1.73;100.00;98516.50;5054169;28;20029;-72
2021/11/27 00:43:12;;;;;;;8.10;1.40;;;;;;;1.72;100.00;98512.25;5055066;28;20029;-72
2021/11/27 00:45:41;;;;;;;8.25;1.60;;;;;;;1.69;100.00;98505.50;5054259;28;20061;-73
2021/11/27 00:48:09;;;;;;;9.70;1.70;;;;;;;1.67;100.00;98510.06;5053931;28;20021;-73
2021/11/27 00:50:40;;;;;;;6.57;1.67;;;;;;;1.63;100.00;98508.66;5054178;28;20463;-72
2021/11/27 00:53:05;;;;;;;7.88;1.52;;;;;;;1.60;100.00;98511.56;5054465;28;20469;-73
2021/11/27 00:55:32;;;;;;;3.55;1.40;;;;;;;1.58;100.00;98518.72;5054289;28;20064;-72
2021/11/27 00:57:58;;;;;;;5.68;2.45;;;;;;;1.58;100.00;98503.00;5054276;28;20036;-72
2021/11/27 01:00:31;;;;;;;7.18;3.42;;;;;;;1.57;100.00;98509.22;5054518;28;20556;-72
2021/11/27 01:02:58;;;;;;;6.43;2.00;;;;;;;1.58;100.00;98514.34;5054580;28;20052;-72
2021/11/27 01:05:24;;;;;;;5.88;1.85;;;;;;;1.57;100.00;98506.59;5054259;28;20041;-72
2021/11/27 01:07:49;;;;;;;6.53;1.95;;;;;;;1.57;100.00;98511.84;5054030;28;20115;-72
2021/11/27 01:10:19;;;;;;;8.93;2.00;;;;;;;1.54;100.00;98507.72;5054252;28;20025;-72
2021/11/27 01:12:45;;;;;;;9.93;2.20;;;;;;;1.52;100.00;98509.66;5053484;28;20398;-72
2021/11/27 01:15:13;;;;;;;10.23;2.10;;;;;;;1.50;100.00;98508.13;5054590;28;20040;-72
2021/11/27 01:17:38;;;;;;;12.15;2.38;;;;;;;1.47;100.00;98501.34;5053500;28;20028;-72
2021/11/27 01:20:07;;;;;;;12.43;2.20;;;;;;;1.45;100.00;98497.22;5054115;28;20048;-73
2021/11/27 01:22:32;;;;;;;8.18;1.90;;;;;;;1.43;100.00;98507.00;5053627;28;20029;-73
2021/11/27 01:24:58;;;;;;;7.50;1.90;;;;;;;1.40;100.00;98505.50;5036269;28;20048;-72
2021/11/27 01:27:26;;;;;;;8.07;2.28;;;;;;;1.38;100.00;98507.44;5053960;28;20068;-72
2021/11/27 01:29:51;;;;;;;9.15;2.30;;;;;;;1.37;100.00;98509.22;5053451;28;20033;-72
2021/11/27 01:32:18;;;;;;;8.27;2.20;;;;;;;1.38;100.00;98515.28;5053627;28;20492;-72
2021/11/27 01:34:43;;;;;;;9.50;2.35;;;;;;;1.35;100.00;98513.75;5053453;28;20059;-73
2021/11/27 01:37:10;;;;;;;8.85;2.20;;;;;;;1.35;100.00;98518.19;5036048;28;20033;-72
2021/11/27 01:39:36;;;;;;;10.23;2.22;;;;;;;1.32;100.00;98526.31;5053384;28;20032;-72
2021/11/27 01:42:03;;;;;;;8.38;2.28;;;;;;;1.30;100.00;98515.13;5053579;28;20048;-72
2021/11/27 01:44:29;;;;;;;11.55;2.17;;;;;;;1.28;100.00;98525.75;5053751;28;20039;-72
2021/11/27 01:46:54;;;;;;;6.57;1.92;;;;;;;1.25;100.00;98525.22;5053050;28;20029;-72
2021/11/27 01:49:20;;;;;;;5.63;2.25;;;;;;;1.23;100.00;98528.78;5053233;28;20029;-72
2021/11/27 01:51:45;;;;;;;6.85;1.83;;;;;;;1.23;100.00;98528.78;5052885;28;20138;-72
2021/11/27 01:54:12;;;;;;;8.57;2.15;;;;;;;1.23;100.00;98531.41;5053118;28;20029;-72
2021/11/27 01:56:54;;;;;;;7.97;2.22;;;;;;;1.21;100.00;98525.47;5034975;28;20362;-73
2021/11/27 01:59:20;;;;;;;;;;;;;;;1.20;100.00;98536.09;5053405;28;20047;-72
2021/11/27 02:01:49;;;;;;;5.47;2.05;;;;;;;1.17;100.00;98539.81;5052486;28;20281;-73
2021/11/27 02:04:15;;;;;;;10.05;2.20;;;;;;;1.14;100.00;98541.88;5053291;28;20032;-72
2021/11/27 02:06:43;;;;;;;11.15;2.20;;;;;;;1.10;100.00;98546.53;5034912;28;20029;-72
2021/11/27 02:09:14;;;;;;;7.63;2.00;;;;;;;1.09;100.00;98549.28;5053124;28;20033;-73
2021/11/27 02:11:40;;;;;;;4.75;1.77;;;;;;;1.07;100.00;98549.44;5052556;28;20025;-73
2021/11/27 02:14:07;;;;;;;6.15;1.75;;;;;;;1.04;100.00;98555.75;5053073;28;20040;-73
2021/11/27 02:16:34;;;;;;;6.78;2.42;;;;;;;1.03;100.00;98554.13;5052919;28;20469;-73
2021/11/27 02:19:00;;;;;;;6.85;1.65;;;;;;;1.05;100.00;98559.22;5052429;28;20076;-73
2021/11/27 02:21:25;;;;;;;14.82;2.38;;;;;;;1.06;100.00;98560.91;5034890;28;20071;-73
2021/11/27 02:23:53;;;;;;;10.43;2.78;;;;;;;1.09;100.00;98565.88;5052131;28;20044;-73
2021/11/27 02:26:25;;;;;;;7.82;2.17;;;;;;;1.12;100.00;98565.59;5052506;28;20477;-73
2021/11/27 02:28:56;;;;;;;8.57;2.20;;;;;;;1.17;100.00;98557.31;5052657;28;20032;-73
2021/11/27 02:31:24;;;;;;;15.97;2.73;;;;;;;1.21;100.00;98563.97;5052839;28;20029;-73
2021/11/27 02:33:50;;;;;;;8.30;2.38;;;;;;;1.25;100.00;98559.25;5052165;28;20032;-73
2021/11/27 02:36:15;;;;;;;12.77;2.50;;;;;;;1.27;100.00;98552.94;5052379;28;20476;-73
2021/11/27 02:38:41;;;;;;;7.68;2.35;;;;;;;1.27;100.00;98552.94;5051975;28;20037;-73
2021/11/27 02:41:06;;;;;;;6.07;2.38;;;;;;;1.26;100.00;98548.66;5052557;28;20035;-73
2021/11/27 02:43:32;;;;;;;11.00;2.85;;;;;;;1.22;100.00;98545.50;5052267;28;20472;-72
2021/11/27 02:45:58;;;;;;;9.48;2.50;;;;;;;1.21;100.00;98548.25;5052080;28;20036;-73
2021/11/27 02:48:23;;;;;;;10.57;2.88;;;;;;;1.16;100.00;98551.25;5052425;28;20381;-73
2021/11/27 02:50:49;;;;;;;11.30;2.75;;;;;;;1.13;100.00;98556.75;5051903;28;20028;-73
2021/11/27 02:53:16;;;;;;;11.90;3.33;;;;;;;1.12;100.00;98555.13;5034542;28;20381;-73
2021/11/27 02:55:42;;;;;;;8.82;3.47;;;;;;;1.13;100.00;98551.50;5051849;28;20366;-73
2021/11/27 02:58:08;;;;;;;9.23;3.40;;;;;;;1.16;100.00;98553.84;5052397;28;20033;-72
2021/11/27 03:00:33;;;;;;;13.93;4.20;;;;;;;1.20;100.00;98567.53;5052044;28;20493;-72
2021/11/27 03:02:59;;;;;;;8.45;3.33;;;;;;;1.20;100.00;98557.06;5051669;28;20359;-72
2021/11/27 03:05:24;;;;;;;16.40;3.47;;;;;;;1.20;100.00;98572.78;5051990;28;20032;-72
2021/11/27 03:07:50;;;;;;;9.35;3.80;;;;;;;1.18;100.00;98566.81;5051506;28;20510;-72
2021/11/27 03:10:17;;;;;;;7.63;3.75;;;;;;;1.17;100.00;98567.81;5052595;28;20041;-72
2021/11/27 03:12:44;;;;;;;14.35;3.75;;;;;;;1.14;100.00;98568.91;5055536;28;20044;-74
2021/11/27 03:15:12;;;;;;;4.03;2.92;;;;;;;1.12;100.00;98575.22;5056168;28;20028;-72
2021/11/27 03:17:38;;;;;;;7.95;3.13;;;;;;;1.11;100.00;98577.03;5056154;28;20083;-72
2021/11/27 03:20:05;;;;;;;13.43;3.53;;;;;;;1.10;100.00;98570.13;5056087;28;20068;-73
2021/11/27 03:22:30;;;;;;;8.20;3.17;;;;;;;1.11;100.00;98576.19;5056031;28;20047;-72
2021/11/27 03:24:56;;;;;;;8.88;3.45;;;;;;;1.12;100.00;98572.59;5055419;28;20400;-73
2021/11/27 03:27:21;;;;;;;10.88;3.60;;;;;;;1.13;100.00;98574.28;5056162;28;20036;-72
2021/11/27 03:29:47;;;;;;;6.80;3.10;;;;;;;1.15;100.00;98574.94;5055369;28;20040;-73
2021/11/27 03:32:15;;;;;;;10.02;4.10;;;;;;;1.16;100.00;98582.69;5055988;28;20512;-72
2021/11/27 03:34:42;;;;;;;10.93;3.30;;;;;;;1.19;100.00;98586.81;5056071;28;20025;-72
2021/11/27 03:37:08;;;;;;;11.85;3.47;;;;;;;1.20;100.00;98578.00;5055373;28;20127;-72
2021/11/27 03:39:35;;;;;;;9.68;3.55;;;;;;;1.20;100.00;98583.25;5055755;28;20370;-73
2021/11/27 03:42:07;;;;;;;10.20;3.80;;;;;;;1.16;100.00;98590.53;5055352;28;20068;-73
2021/11/27 03:44:33;;;;;;;10.50;4.10;;;;;;;1.14;100.00;98591.66;5055418;28;20037;-73
2021/11/27 03:46:59;;;;;;;8.68;4.30;;;;;;;1.10;100.00;98593.69;5055275;28;20037;-73
2021/11/27 03:49:27;;;;;;;14.60;4.80;;;;;;;1.07;100.00;98596.56;5055700;28;20025;-73
2021/11/27 03:51:53;;;;;;;16.70;5.28;;;;;;;1.04;100.00;98600.28;5055192;28;20035;-73
2021/11/27 03:54:20;;;;;;;14.27;5.40;;;;;;;1.05;100.00;98606.38;5055635;28;20048;-73
2021/11/27 03:56:45;;;;;;;12.75;5.22;;;;;;;1.02;100.00;98612.69;5055576;28;20115;-72
2021/11/27 03:59:11;;;;;;;11.00;5.30;;;;;;;1.01;100.00;98612.81;5055134;28;20112;-73
2021/11/27 04:01:36;;;;;;;14.18;5.32;;;;;;;0.99;100.00;98617.38;5037422;28;20480;-72
2021/11/27 04:04:03;;;;;;;12.52;5.63;;;;;;;0.98;100.00;98615.72;5054740;28;20111;-73
2021/11/27 04:06:30;;;;;;;11.95;5.30;;;;;;;0.94;100.00;98611.69;5055381;28;20065;-72
2021/11/27 04:08:58;;;;;;;14.07;6.47;;;;;;;0.93;100.00;98616.13;5054896;28;20059;-73
2021/11/27 04:11:23;;;;;;;13.63;6.45;;;;;;;0.89;100.00;98614.72;5054984;28;20052;-72
2021/11/27 04:13:49;;;;;;;13.80;6.25;;;;;;;0.85;100.00;98613.31;5054993;28;20029;-73
2021/11/27 04:16:15;;;;;;;13.70;5.93;;;;;;;0.82;100.00;98617.03;5054886;28;20489;-73
2021/11/27 04:18:41;;;;;;;18.70;6.68;;;;;;;0.79;100.00;98616.47;5055188;28;20060;-72
2021/11/27 04:21:06;;;;;;;17.90;6.60;;;;;;;0.75;100.00;98626.38;5054602;28;20025;-72
2021/11/27 04:23:31;;;;;;;17.77;7.60;;;;;;;0.72;100.00;98629.25;5053769;28;20091;-72
2021/11/27 04:25:57;;;;;;;15.18;6.63;;;;;;;0.68;100.00;98631.28;5036915;28;20036;-73
2021/11/27 04:28:22;;;;;;;11.75;7.10;;;;;;;0.66;100.00;98633.22;5037246;28;20029;-73
2021/11/27 04:30:48;;;;;;;15.50;6.35;;;;;;;0.64;100.00;98632.53;5054998;28;20116;-73
2021/11/27 04:33:13;;;;;;;14.40;6.88;;;;;;;0.63;100.00;98638.72;5054223;28;20033;-73
2021/11/27 04:35:39;;;;;;;19.52;7.60;;;;;;;0.62;100.00;98636.22;5055205;28;20040;-74
2021/11/27 04:38:06;;;;;;;22.23;8.10;;;;;;;0.62;100.00;98641.47;5054391;28;20481;-73
2021/11/27 04:40:32;;;;;;;17.52;7.47;;;;;;;0.60;100.00;98644.22;5055039;28;20462;-73
2021/11/27 04:42:58;;;;;;;19.17;8.10;;;;;;;0.61;100.00;98645.88;5053945;28;20033;-73
2021/11/27 04:45:24;;;;;;;15.38;7.20;;;;;;;0.63;100.00;98645.75;5036766;28;20033;-73
2021/11/27 04:47:51;;;;;;;20.63;8.10;;;;;;;0.63;100.00;98650.97;5054635;28;20120;-73
2021/11/27 04:50:18;;;;;;;21.83;8.43;;;;;;;0.65;100.00;98656.91;5053975;28;20037;-73
2021/11/27 04:52:44;;;;;;;20.88;8.68;;;;;;;0.66;100.00;98658.56;5054651;28;20118;-73
2021/11/27 04:55:10;;;;;;;17.95;7.75;;;;;;;0.66;100.00;98656.78;5053847;28;20033;-73
2021/11/27 04:57:37;;;;;;;24.63;9.13;;;;;;;0.67;100.00;98661.06;5054386;28;20076;-73
2021/11/27 05:00:10;;;;;;;21.45;9.48;;;;;;;0.69;100.00;98668.78;5054005;28;20036;-73
2021/11/27 05:02:35;;;;;;;21.98;8.65;;;;;;;0.69;100.00;98674.84;5053879;28;20473;-73
2021/11/27 05:05:00;;;;;;;20.10;9.38;;;;;;;0.71;100.00;98674.69;5053984;28;20108;-73
2021/11/27 05:07:26;;;;;;;22.85;10.20;;;;;;;0.72;100.00;98678.13;5053968;28;20033;-73
2021/11/27 05:09:51;;;;;;;27.20;11.60;;;;;;;0.72;100.00;98683.38;5054164;28;20033;-73
2021/11/27 05:12:16;;;;;;;25.98;11.82;;;;;;;0.72;100.00;98689.47;5053755;28;20503;-73
2021/11/27 05:14:42;;;;;;;25.13;12.25;;;;;;;0.72;100.00;98688.63;5054216;28;20419;-73
2021/11/27 05:17:07;;;;;;;31.70;13.20;;;;;;;0.72;100.00;98692.09;5053698;28;20083;-73
2021/11/27 05:19:34;;;;;;;20.80;10.32;;;;;;;0.72;100.00;98686.84;5032597;28;20064;-73
2021/11/27 05:21:59;;;;;;;32.67;11.85;;;;;;;0.72;100.00;98692.09;5033542;28;20481;-74
2021/11/27 05:24:25;;;;;;;28.00;11.48;;;;;;;0.72;100.00;98696.47;5033801;28;20041;-73
2021/11/27 05:26:50;;;;;;;26.45;11.30;;;;;;;0.69;100.00;98700.19;5033996;28;20037;-73
2021/11/27 05:29:16;;;;;;;17.13;9.85;;;;;;;0.67;100.00;98707.31;5033515;28;20386;-73
2021/11/27 05:31:42;;;;;;;24.27;11.55;;;;;;;0.65;100.00;98710.06;5033849;28;20037;-73
2021/11/27 05:36:35;;;;;;;29.88;14.35;;;;;;;0.64;100.00;98724.13;5032702;28;20200;-73
2021/11/27 05:39:03;;;;;;;26.10;13.88;;;;;;;0.65;100.00;98724.97;5033424;28;20437;-74
2021/11/27 05:41:29;;;;;;;29.02;14.43;;;;;;;0.67;100.00;98729.13;5033742;28;20030;-73
2021/11/27 05:43:55;;;;;;;34.92;14.50;;;;;;;0.67;100.00;98723.03;5033759;28;20040;-73
2021/11/27 05:46:21;;;;;;;41.17;15.70;;;;;;;0.66;100.00;98724.81;5033151;28;20144;-73
2021/11/27 05:48:48;;;;;;;41.80;16.58;;;;;;;0.68;100.00;98727.31;5033782;28;20036;-73
2021/11/27 05:51:13;;;;;;;37.22;15.25;;;;;;;0.67;100.00;98736.97;5032864;28;20082;-73
2021/11/27 05:53:39;;;;;;;44.15;16.75;;;;;;;0.70;100.00;98734.09;5033266;28;20036;-73
2021/11/27 05:56:05;;;;;;;40.63;17.17;;;;;;;0.73;100.00;98734.78;5033003;28;20432;-73
2021/11/27 05:58:31;;;;;;;42.75;16.77;;;;;;;0.75;100.00;98744.19;5033277;28;20029;-72
2021/11/27 06:01:02;;;;;;;36.63;17.40;;;;;;;0.79;100.00;98748.22;5032912;28;20025;-72
2021/11/27 06:03:27;;;;;;;;;;;;;;;0.83;100.00;98754.00;5033682;28;20025;-73
2021/11/27 06:05:53;;;;;;;41.20;17.77;;;;;;;0.84;100.00;98759.13;5033160;28;19940;-73
2021/11/27 06:08:18;;;;;;;46.05;17.45;;;;;;;0.87;100.00;98766.72;5031573;28;20040;-73
2021/11/27 06:10:43;;;;;;;48.33;17.70;;;;;;;0.90;100.00;98778.72;5032928;28;20025;-72
2021/11/27 06:13:09;;;;;;;56.10;19.30;;;;;;;0.92;100.00;98773.34;5033004;28;20603;-72
2021/11/27 06:15:34;;;;;;;55.95;19.05;;;;;;;0.96;100.00;98778.22;5033251;28;20451;-72
2021/11/27 06:18:00;;;;;;;52.15;18.42;;;;;;;0.98;100.00;98778.91;5034197;28;20075;-73
2021/11/27 06:20:27;;;;;;;53.90;19.63;;;;;;;1.02;100.00;98777.69;5052734;28;20049;-72
2021/11/27 06:22:52;;;;;;;63.20;21.63;;;;;;;1.05;100.00;98787.09;5052609;28;20033;-72
2021/11/27 06:25:18;;;;;;;65.03;21.52;;;;;;;1.07;100.00;98784.34;5052361;28;20032;-73
2021/11/27 06:27:43;;;;;;;63.28;20.95;;;;;;;1.09;100.00;98790.28;5052499;28;20562;-72
2021/11/27 06:30:09;;;;;;;67.10;20.98;;;;;;;1.09;100.00;98795.50;5052227;28;20389;-73
2021/11/27 06:32:35;;;;;;;68.18;22.13;;;;;;;1.10;100.00;98798.00;5052675;28;20428;-72
2021/11/27 06:35:01;;;;;;;65.10;20.88;;;;;;;1.11;100.00;98801.47;5052635;28;20031;-72
2021/11/27 06:37:27;;;;;;;72.05;22.45;;;;;;;1.13;100.00;98807.41;5052149;28;20029;-72
2021/11/27 06:39:53;;;;;;;65.38;21.45;;;;;;;1.12;100.00;98809.19;5052573;28;20032;-72
2021/11/27 06:42:19;;;;;;;64.65;21.58;;;;;;;1.13;100.00;98810.03;5052060;28;20037;-72
2021/11/27 06:44:48;;;;;;;63.35;22.15;;;;;;;1.13;100.00;98817.88;5052423;28;20125;-72
2021/11/27 06:47:16;;;;;;;70.22;21.20;;;;;;;1.14;100.00;98819.56;5051487;28;20056;-72
2021/11/27 06:49:41;;;;;;;65.70;21.40;;;;;;;1.14;100.00;98827.41;5052273;28;20033;-73
2021/11/27 06:52:07;;;;;;;70.15;22.08;;;;;;;1.15;100.00;98831.66;5052381;28;20406;-72
2021/11/27 06:54:32;;;;;;;70.20;21.75;;;;;;;1.15;100.00;98842.16;5052024;28;20411;-72
2021/11/27 06:56:57;;;;;;;76.60;22.77;;;;;;;1.15;100.00;98843.00;5052449;28;20362;-72
2021/11/27 06:59:23;;;;;;;67.05;22.55;;;;;;;1.15;100.00;98847.38;5051974;28;20111;-72
2021/11/27 07:01:48;;;;;;;73.45;23.35;;;;;;;1.17;100.00;98845.50;5052149;28;20120;-72
2021/11/27 07:04:14;;;;;;;71.38;22.98;;;;;;;1.18;100.00;98849.75;5051827;28;20079;-72
2021/11/27 07:06:40;;;;;;;67.93;22.83;;;;;;;1.16;100.00;98854.28;5052286;28;20487;-72
2021/11/27 07:09:06;;;;;;;73.75;23.55;;;;;;;1.14;100.00;98857.03;5052191;28;20064;-72
2021/11/27 07:11:32;;;;;;;86.30;24.20;;;;;;;1.12;100.00;98858.13;5051740;28;20029;-73
2021/11/27 07:13:57;;;;;;;80.78;24.42;;;;;;;1.10;100.00;98868.72;5052356;28;20466;-73
2021/11/27 07:16:22;;;;;;;89.28;25.52;;;;;;;1.10;100.00;98870.53;5034033;28;20424;-73
2021/11/27 07:18:48;;;;;;;90.32;26.35;;;;;;;1.11;100.00;98880.88;5051881;28;20099;-73
2021/11/27 07:21:13;;;;;;;100.70;29.13;;;;;;;1.11;100.00;98883.50;5051428;28;20029;-73
2021/11/27 07:23:38;;;;;;;90.88;27.95;;;;;;;1.12;100.00;98886.94;5052083;28;20025;-73
2021/11/27 07:26:04;;;;;;;91.25;27.25;;;;;;;1.12;100.00;98885.16;5052113;28;20029;-73
2021/11/27 07:28:29;;;;;;;96.70;28.13;;;;;;;1.12;100.00;98886.94;5051733;28;20473;-73
2021/11/27 07:30:55;;;;;;;94.32;29.02;;;;;;;1.13;100.00;98889.44;5052182;28;20036;-73
2021/11/27 07:33:20;;;;;;;91.18;28.73;;;;;;;1.13;100.00;98899.91;5051940;28;20043;-73
2021/11/27 07:35:47;;;;;;;105.20;28.88;;;;;;;1.14;100.00;98900.75;5052181;28;20111;-73
2021/11/27 07:38:12;;;;;;;121.90;30.65;;;;;;;1.13;100.00;98902.53;5052051;28;20350;-73
2021/11/27 07:40:37;;;;;;;94.60;27.50;;;;;;;1.15;100.00;98915.50;5051329;28;20028;-73
2021/11/27 07:43:05;;;;;;;107.18;29.98;;;;;;;1.15;100.00;98918.13;5051617;28;20037;-73
2021/11/27 07:45:33;;;;;;;98.15;30.27;;;;;;;1.15;100.00;98920.75;5051415;28;20044;-73
2021/11/27 07:47:58;;;;;;;120.00;31.30;;;;;;;1.17;100.00;98927.53;5034417;28;20449;-73
2021/11/27 07:50:24;;;;;;;125.60;33.35;;;;;;;1.20;100.00;98931.69;5051422;28;20037;-73
2021/11/27 07:52:49;;;;;;;122.10;35.05;;;;;;;1.22;100.00;98935.84;5051883;28;20033;-73
2021/11/27 07:55:15;;;;;;;128.82;35.20;;;;;;;1.25;100.00;98945.22;5051654;28;20032;-72
2021/11/27 07:57:40;;;;;;;128.73;35.28;;;;;;;1.30;100.00;98944.84;5053814;28;20534;-72
2021/11/27 08:00:06;;;;;;;126.05;36.00;;;;;;;1.32;100.00;98956.88;5055561;28;20052;-72
2021/11/27 08:02:31;;;;;;;127.20;33.70;;;;;;;1.35;100.00;98958.41;5054534;28;20025;-72
2021/11/27 08:04:57;;;;;;;133.45;36.10;;;;;;;1.38;100.00;98963.41;5055390;28;20041;-72
2021/11/27 08:07:22;;;;;;;130.88;35.58;;;;;;;1.39;100.00;98965.91;5054659;28;20029;-72
2021/11/27 08:09:47;;;;;;;126.20;34.60;;;;;;;1.39;100.00;98968.53;5055393;28;20033;-71
2021/11/27 08:12:13;;;;;;;136.13;35.95;;;;;;;1.39;100.00;98973.75;5055270;28;20044;-71
2021/11/27 08:14:38;;;;;;;123.68;34.50;;;;;;;1.40;100.00;98974.59;5054823;28;20492;-72
2021/11/27 08:17:03;;;;;;;119.78;33.38;;;;;;;1.41;100.00;98974.47;5055299;28;20041;-72
2021/11/27 08:19:29;;;;;;;125.72;35.08;;;;;;;1.43;100.00;98976.94;5054734;28;20121;-71
2021/11/27 08:21:55;;;;;;;133.95;34.03;;;;;;;1.47;100.00;98980.16;5055002;28;20029;-71
2021/11/27 08:24:21;;;;;;;135.60;35.22;;;;;;;1.50;100.00;98980.75;5054828;28;20040;-73
2021/11/27 08:26:47;;;;;;;116.63;32.47;;;;;;;1.52;100.00;98985.84;5054972;28;20500;-72
2021/11/27 08:29:12;;;;;;;117.00;33.53;;;;;;;1.56;100.00;98989.88;5054991;28;20032;-72
2021/11/27 08:31:39;;;;;;;114.82;32.97;;;;;;;1.59;100.00;98992.25;5054420;28;20163;-72
2021/11/27 08:34:05;;;;;;;127.32;34.00;;;;;;;1.62;100.00;98991.19;5054804;28;20048;-72
2021/11/27 08:36:30;;;;;;;124.70;33.92;;;;;;;1.64;100.00;98999.75;5036488;28;20021;-73
2021/11/27 08:38:55;;;;;;;121.68;33.28;;;;;;;1.67;100.00;99004.72;5054749;28;20029;-72
2021/11/27 08:41:21;;;;;;;109.82;33.08;;;;;;;1.70;100.00;99010.56;5054393;28;20049;-76
2021/11/27 08:43:46;;;;;;;129.60;34.15;;;;;;;1.72;100.00;99018.31;5054352;28;20040;-72
2021/11/27 08:46:12;;;;;;;113.38;32.13;;;;;;;1.73;100.00;99009.47;5054714;28;20462;-71
2021/11/27 08:48:37;;;;;;;111.07;32.20;;;;;;;1.74;100.00;99011.13;5054034;28;20036;-71
2021/11/27 08:51:11;;;;;;;117.93;33.38;;;;;;;1.75;100.00;99018.88;5054683;28;20083;-71
2021/11/27 08:53:38;;;;;;;114.72;32.67;;;;;;;1.77;100.00;99022.19;5054109;28;20119;-71
2021/11/27 08:56:07;;;;;;;119.97;35.17;;;;;;;1.80;100.00;99023.72;5036499;28;20033;-72
2021/11/27 08:58:32;;;;;;;125.75;32.63;;;;;;;1.83;100.00;99025.28;5054020;28;20056;-72
2021/11/27 09:00:57;;;;;;;128.55;35.85;;;;;;;1.86;100.00;99022.41;5036480;28;20066;-71
2021/11/27 09:03:23;;;;;;;139.30;36.78;;;;;;;1.87;100.00;99030.13;5054358;28;20108;-77
2021/11/27 09:05:49;;;;;;;128.90;37.38;;;;;;;1.89;100.00;99028.19;5054347;28;20028;-73
2021/11/27 09:08:15;;;;;;;133.27;37.97;;;;;;;1.91;100.00;99023.69;5053696;28;20135;-71
2021/11/27 09:10:41;;;;;;;144.40;39.63;;;;;;;1.92;100.00;99027.94;5053487;28;20029;-72
2021/11/27 09:13:06;;;;;;;135.00;38.33;;;;;;;1.94;100.00;99033.91;5054254;28;20423;-72
2021/11/27 09:15:32;;;;;;;136.48;38.28;;;;;;;1.96;100.00;99033.78;5035771;28;20432;-72
2021/11/27 09:17:57;;;;;;;142.98;38.13;;;;;;;2.00;100.00;99023.84;5053931;28;20060;-72
2021/11/27 09:20:23;;;;;;;112.35;36.65;;;;;;;2.01;100.00;99026.34;5054274;28;20056;-72
2021/11/27 09:22:48;;;;;;;147.77;39.45;;;;;;;2.03;100.00;99036.72;5053458;28;20033;-72
2021/11/27 09:25:14;;;;;;;129.73;39.13;;;;;;;2.05;100.00;99030.38;5053965;28;20036;-72
2021/11/27 09:27:39;;;;;;;136.77;38.17;;;;;;;2.07;100.00;99044.19;5053390;28;20381;-72
2021/11/27 09:30:08;;;;;;;113.97;35.95;;;;;;;2.09;100.00;99051.94;5053783;28;20469;-72
2021/11/27 09:32:33;;;;;;;114.25;35.92;;;;;;;2.08;100.00;99045.88;5053016;28;20500;-72
2021/11/27 09:34:59;;;;;;;121.43;34.35;;;;;;;2.11;100.00;99050.84;5053727;28;20029;-71
2021/11/27 09:37:25;;;;;;;102.40;34.03;;;;;;;2.06;100.00;99042.56;5053677;28;20032;-72
2021/11/27 09:39:51;;;;;;;102.43;33.53;;;;;;;2.08;100.00;99045.88;5053170;28;20032;-72
2021/11/27 09:42:18;;;;;;;94.53;33.63;;;;;;;2.13;100.00;99055.16;5053460;28;20029;-72
2021/11/27 09:44:47;;;;;;;114.53;33.75;;;;;;;2.17;100.00;99048.69;5053052;28;20386;-72
2021/11/27 09:47:14;;;;;;;93.85;33.03;;;;;;;2.31;100.00;99047.53;5053404;28;20163;-72
2021/11/27 09:49:39;;;;;;;71.65;28.95;;;;;;;2.35;100.00;99046.31;5052965;28;20472;-73
2021/11/27 09:52:05;;;;;;;93.88;28.70;;;;;;;2.42;100.00;99056.16;5053595;28;20106;-74
2021/11/27 09:54:31;;;;;;;88.00;30.88;;;;;;;2.44;100.00;99056.03;5052371;28;20060;-76
2021/11/27 09:56:56;;;;;;;75.75;27.65;;;;;;;2.49;100.00;99055.63;5052803;28;20032;-72
2021/11/27 09:59:22;;;;;;;70.43;26.52;;;;;;;2.50;100.00;99045.00;5052834;28;20025;-70
2021/11/27 10:01:53;;;;;;;84.32;27.33;;;;;;;2.52;100.00;99045.69;5034372;28;20479;-71
2021/11/27 10:04:21;;;;;;;61.57;24.23;;;;;;;2.58;100.00;99049.59;5052790;28;20035;-71
2021/11/27 10:06:47;;;;;;;61.90;25.45;;;;;;;2.61;100.00;99049.31;5052017;28;20021;-71
2021/11/27 10:09:20;;;;;;;61.08;23.52;;;;;;;2.72;100.00;99048.41;5052636;28;20179;-71
2021/11/27 10:11:49;;;;;;;53.33;22.02;;;;;;;2.78;100.00;99053.13;5052034;28;20334;-71
2021/11/27 10:14:15;;;;;;;63.70;21.33;;;;;;;2.93;100.00;99050.97;5051670;28;20037;-72
2021/11/27 10:16:59;;;;;;;46.55;20.00;;;;;;;3.11;100.00;99059.84;5040702;28;20048;-72
2021/11/27 10:19:27;;;;;;;47.63;21.38;;;;;;;3.27;100.00;99053.25;5042751;28;20060;-72
2021/11/27 10:22:01;;;;;;;42.70;17.75;;;;;;;3.44;100.00;99042.06;5041253;28;20144;-72
2021/11/27 10:24:32;;;;;;;27.63;13.95;;;;;;;3.55;100.00;99056.03;5041398;28;20056;-72
2021/11/27 10:27:01;;;;;;;25.25;12.00;;;;;;;3.58;100.00;99058.41;5040903;28;20056;-72
2021/11/27 10:29:31;;;;;;;17.30;8.45;;;;;;;3.49;100.00;99049.53;5041218;28;20033;-71
2021/11/27 10:32:11;;;;;;;12.73;4.18;;;;;;;3.33;100.00;99055.34;5041049;28;20032;-73
2021/11/27 10:34:38;;;;;;;13.43;3.45;;;;;;;3.12;100.00;99048.38;5050456;28;20025;-78
2021/11/27 10:37:24;;;;;;;10.95;3.50;;;;;;;2.91;98.66;99055.50;5052263;28;20476;-72
2021/11/27 10:40:16;;;;;;;14.20;4.13;;;;;;;2.78;99.36;99056.59;5051295;28;20028;-73
2021/11/27 10:42:47;;;;;;;12.02;3.50;;;;;;;2.65;99.44;99055.97;5051521;28;20381;-73
2021/11/27 10:45:12;;;;;;;8.30;2.70;;;;;;;2.53;99.33;99059.66;5052265;28;20108;-71
2021/11/27 10:47:38;;;;;;;14.38;4.07;;;;;;;2.44;99.84;99048.16;5050133;28;20108;-74
2021/11/27 10:50:08;;;;;;;15.52;3.85;;;;;;;2.34;100.00;99053.34;5040400;28;20477;-74
2021/11/27 10:52:37;;;;;;;12.30;2.95;;;;;;;2.31;100.00;99055.41;5050998;28;20064;-73
2021/11/27 10:55:21;;;;;;;10.02;2.70;;;;;;;2.18;100.00;99051.19;5051235;28;20043;-72
2021/11/27 10:57:48;;;;;;;15.25;3.13;;;;;;;2.10;100.00;99049.19;5050643;28;20540;-71
2021/11/27 11:00:27;;;;;;;10.50;2.55;;;;;;;2.03;100.00;99048.06;5050978;28;20100;-73
2021/11/27 11:02:53;;;;;;;10.68;2.60;;;;;;;1.92;100.00;99042.88;5050203;28;20029;-72
2021/11/27 11:05:19;;;;;;;5.68;2.45;;;;;;;1.87;100.00;99045.88;5050944;28;20029;-72
2021/11/27 11:07:57;;;;;;;7.47;2.30;;;;;;;1.81;100.00;99045.53;5050372;28;20036;-73
2021/11/27 11:10:25;;;;;;;6.28;2.40;;;;;;;1.76;100.00;99056.41;5050713;28;20037;-72
2021/11/27 11:12:56;;;;;;;9.02;2.67;;;;;;;1.70;100.00;99049.03;5050295;28;20076;-73
2021/11/27 11:15:31;;;;;;;9.82;2.97;;;;;;;1.70;100.00;99046.44;5047448;28;20378;-71
2021/11/27 11:18:09;;;;;;;16.92;3.90;;;;;;;1.70;100.00;99035.94;5030400;28;20151;-73
2021/11/27 11:20:36;;;;;;;9.63;2.58;;;;;;;1.70;100.00;99036.78;5030998;28;20087;-72
2021/11/27 11:23:09;;;;;;;10.70;2.78;;;;;;;1.68;100.00;99049.19;5029572;28;20109;-70